createdAt,value
2023-03-12T00:02:06.550Z,7.50
2023-03-12T00:04:42.778Z,4.90
2023-03-12T00:07:12.786Z,7.10
2023-03-12T00:09:49.988Z,7.20
2023-03-12T00:12:26.132Z,6.80
2023-03-12T00:15:02.078Z,6.50
2023-03-12T00:17:40.154Z,5.30
2023-03-12T00:20:12.756Z,3.50
2023-03-12T00:22:48.455Z,9.80
2023-03-12T00:25:24.454Z,6.50
2023-03-12T00:28:00.937Z,13.70
2023-03-12T00:30:37.457Z,8.30
2023-03-12T00:33:14.801Z,11.60
2023-03-12T00:35:51.175Z,15.40
2023-03-12T00:38:27.369Z,9.80
2023-03-12T00:40:57.498Z,9.20
2023-03-12T00:43:29.293Z,10.00
2023-03-12T00:46:05.155Z,8.40
2023-03-12T00:48:42.030Z,9.40
2023-03-12T00:51:18.537Z,9.10
2023-03-12T00:53:56.384Z,10.30
2023-03-12T00:56:34.498Z,8.30
2023-03-12T00:59:05.906Z,7.60
2023-03-12T01:01:42.839Z,11.60
2023-03-12T01:04:19.239Z,11.80
2023-03-12T01:06:50.442Z,11.90
2023-03-12T01:09:27.221Z,9.30
2023-03-12T01:12:03.596Z,9.60
2023-03-12T01:14:40.492Z,8.90
2023-03-12T01:17:10.686Z,9.60
2023-03-12T01:19:47.653Z,7.90
2023-03-12T01:22:23.739Z,10.10
2023-03-12T01:24:53.948Z,9.90
2023-03-12T01:27:30.569Z,12.70
2023-03-12T01:30:07.340Z,10.20
2023-03-12T01:32:43.986Z,13.80
2023-03-12T01:35:21.125Z,5.20
2023-03-12T01:37:57.748Z,11.00
2023-03-12T01:40:38.379Z,12.60
2023-03-12T01:43:39.256Z,6.10
2023-03-12T01:46:46.347Z,10.50
2023-03-12T01:49:34.344Z,11.50
2023-03-12T01:52:14.030Z,10.30
2023-03-12T01:55:05.144Z,10.30
2023-03-12T01:57:54.135Z,12.60
2023-03-12T02:00:31.318Z,8.40
2023-03-12T02:03:14.345Z,8.50
2023-03-12T02:06:09.358Z,10.50
2023-03-12T02:08:49.041Z,12.70
2023-03-12T02:11:19.559Z,7.10
2023-03-12T02:13:58.083Z,10.80
2023-03-12T02:16:35.109Z,12.00
2023-03-12T02:19:21.009Z,11.30
2023-03-12T02:21:57.168Z,8.50
2023-03-12T02:24:50.569Z,9.80
2023-03-12T02:27:28.271Z,9.40
2023-03-12T02:30:05.393Z,8.80
2023-03-12T02:32:44.681Z,11.80
2023-03-12T02:35:17.336Z,9.30
2023-03-12T02:37:55.293Z,10.10
2023-03-12T02:40:48.814Z,10.00
2023-03-12T02:43:27.936Z,10.20
2023-03-12T02:46:04.439Z,9.70
2023-03-12T02:48:44.668Z,5.80
2023-03-12T02:51:15.498Z,9.30
2023-03-12T02:53:47.276Z,9.00
2023-03-12T02:56:31.318Z,10.30
2023-03-12T02:59:04.483Z,13.20
2023-03-12T03:04:15.245Z,6.10
2023-03-12T03:06:52.769Z,7.20
2023-03-12T03:09:30.993Z,10.10
2023-03-12T03:12:07.654Z,9.60
2023-03-12T03:14:44.214Z,9.20
2023-03-12T03:17:15.773Z,8.20
2023-03-12T03:19:52.698Z,8.20
2023-03-12T03:22:28.791Z,8.10
2023-03-12T03:25:00.298Z,10.10
2023-03-12T03:27:36.544Z,5.50
2023-03-12T03:32:49.465Z,5.30
2023-03-12T03:35:23.065Z,6.70
2023-03-12T03:37:54.760Z,5.50
2023-03-12T03:40:31.845Z,9.40
2023-03-12T03:43:02.845Z,8.20
2023-03-12T03:45:37.434Z,7.90
2023-03-12T03:48:15.297Z,8.10
2023-03-12T03:50:53.751Z,8.80
2023-03-12T03:53:31.168Z,11.50
2023-03-12T03:56:13.006Z,8.40
2023-03-12T03:58:49.284Z,8.20
2023-03-12T04:01:20.141Z,7.60
2023-03-12T04:03:57.383Z,9.90
2023-03-12T04:06:27.549Z,8.00
2023-03-12T04:09:00.681Z,11.30
2023-03-12T04:11:38.458Z,7.50
2023-03-12T04:14:08.822Z,8.20
2023-03-12T04:16:46.505Z,7.40
2023-03-12T04:19:16.905Z,8.00
2023-03-12T04:21:53.912Z,7.20
2023-03-12T04:24:25.339Z,6.80
2023-03-12T04:26:59.858Z,6.80
2023-03-12T04:29:36.214Z,8.40
2023-03-12T04:32:14.261Z,7.60
2023-03-12T04:34:51.321Z,7.20
2023-03-12T04:37:21.611Z,9.00
2023-03-12T04:39:53.301Z,5.60
2023-03-12T04:42:25.025Z,6.60
2023-03-12T04:44:58.954Z,7.20
2023-03-12T04:47:35.846Z,8.50
2023-03-12T04:50:13.442Z,5.90
2023-03-12T04:52:49.890Z,8.70
2023-03-12T04:55:26.851Z,9.10
2023-03-12T04:57:59.219Z,6.60
2023-03-12T05:00:31.141Z,6.50
2023-03-12T05:03:02.291Z,7.20
2023-03-12T05:05:39.199Z,7.00
2023-03-12T05:08:15.592Z,5.50
2023-03-12T05:10:52.209Z,4.70
2023-03-12T05:13:24.039Z,8.10
2023-03-12T05:16:01.535Z,5.20
2023-03-12T05:18:32.643Z,6.80
2023-03-12T05:21:13.353Z,5.30
2023-03-12T05:23:44.234Z,5.80
2023-03-12T05:26:34.453Z,6.20
2023-03-12T05:29:06.537Z,6.70
2023-03-12T05:31:41.742Z,7.20
2023-03-12T05:34:18.115Z,9.80
2023-03-12T05:36:54.448Z,7.40
2023-03-12T05:39:30.736Z,6.90
2023-03-12T05:42:01.003Z,6.10
2023-03-12T05:44:49.309Z,5.60
2023-03-12T05:47:20.076Z,10.60
2023-03-12T05:49:56.533Z,6.00
2023-03-12T05:52:33.331Z,5.80
2023-03-12T05:55:03.630Z,6.10
2023-03-12T05:57:40.570Z,6.60
2023-03-12T06:00:18.259Z,5.80
2023-03-12T06:02:55.409Z,5.80
2023-03-12T06:05:32.244Z,7.20
2023-03-12T06:08:10.052Z,8.90
2023-03-12T06:10:46.053Z,5.80
2023-03-12T06:13:19.486Z,6.30
2023-03-12T06:15:56.668Z,6.80
2023-03-12T06:18:33.582Z,7.70
2023-03-12T06:21:14.174Z,5.00
2023-03-12T06:23:46.452Z,7.90
2023-03-12T06:26:21.546Z,8.10
2023-03-12T06:28:58.293Z,5.60
2023-03-12T06:31:37.234Z,7.90
2023-03-12T06:36:54.215Z,7.90
2023-03-12T06:39:30.996Z,6.20
2023-03-12T06:42:07.686Z,5.30
2023-03-12T06:44:44.604Z,8.90
2023-03-12T06:47:19.640Z,18.70
2023-03-12T06:49:56.035Z,8.00
2023-03-12T06:52:33.381Z,10.50
2023-03-12T06:55:05.953Z,7.50
2023-03-12T06:57:42.617Z,10.20
2023-03-12T07:00:21.353Z,6.40
2023-03-12T07:02:57.807Z,7.10
2023-03-12T07:05:35.230Z,5.60
2023-03-12T07:08:12.690Z,4.60
2023-03-12T07:10:50.201Z,4.60
2023-03-12T07:13:21.708Z,6.00
2023-03-12T07:16:01.127Z,5.80
2023-03-12T07:18:38.457Z,4.50
2023-03-12T07:21:24.894Z,5.30
2023-03-12T07:24:07.204Z,4.10
2023-03-12T07:26:44.060Z,5.80
2023-03-12T07:29:20.411Z,7.80
2023-03-12T07:31:57.825Z,4.50
2023-03-12T07:34:34.983Z,7.20
2023-03-12T07:37:05.921Z,4.70
2023-03-12T07:39:44.860Z,3.50
2023-03-12T07:42:20.258Z,5.10
2023-03-12T07:44:56.847Z,10.10
2023-03-12T07:47:34.295Z,15.10
2023-03-12T07:50:11.671Z,3.70
2023-03-12T07:52:49.174Z,11.20
2023-03-12T07:55:21.360Z,8.80
2023-03-12T07:58:00.246Z,6.30
2023-03-12T08:00:37.318Z,4.60
2023-03-12T08:03:08.891Z,4.70
2023-03-12T08:05:45.501Z,4.40
2023-03-12T08:08:22.008Z,5.10
2023-03-12T08:11:01.029Z,3.30
2023-03-12T08:13:38.178Z,5.50
2023-03-12T08:16:15.898Z,1.90
2023-03-12T08:18:46.849Z,2.20
2023-03-12T08:21:22.300Z,2.60
2023-03-12T08:24:00.510Z,4.70
2023-03-12T08:26:31.691Z,3.00
2023-03-12T08:29:06.467Z,5.50
2023-03-12T08:32:01.564Z,4.00
2023-03-12T08:34:42.047Z,4.70
2023-03-12T08:37:19.417Z,4.00
2023-03-12T08:39:56.119Z,6.50
2023-03-12T08:42:26.852Z,3.10
2023-03-12T08:45:05.694Z,6.60
2023-03-12T08:47:36.689Z,4.00
2023-03-12T08:50:17.406Z,2.40
2023-03-12T08:52:55.565Z,4.90
2023-03-12T08:55:33.043Z,2.60
2023-03-12T08:58:11.558Z,3.10
2023-03-12T09:00:48.989Z,2.90
2023-03-12T09:03:24.245Z,2.40
2023-03-12T09:06:17.214Z,3.70
2023-03-12T09:08:54.555Z,4.70
2023-03-12T09:11:25.129Z,3.60
2023-03-12T09:17:04.946Z,7.60
2023-03-12T09:19:41.425Z,3.40
2023-03-12T09:22:20.307Z,8.90
2023-03-12T09:24:57.261Z,4.40
2023-03-12T09:27:44.834Z,3.80
2023-03-12T09:30:26.950Z,4.00
2023-03-12T09:33:05.565Z,3.40
2023-03-12T09:35:43.673Z,6.50
2023-03-12T09:38:20.890Z,3.00
2023-03-12T09:40:58.483Z,2.20
2023-03-12T09:43:48.930Z,3.80
2023-03-12T09:46:44.413Z,7.20
2023-03-12T09:49:47.902Z,4.00
2023-03-12T09:52:30.759Z,2.20
2023-03-12T09:55:25.345Z,3.30
2023-03-12T09:58:02.985Z,7.70
2023-03-12T10:00:40.344Z,3.50
2023-03-12T10:03:55.524Z,3.00
2023-03-12T10:06:38.313Z,1.70
2023-03-12T10:09:15.012Z,1.90
2023-03-12T10:11:55.648Z,5.10
2023-03-12T10:14:52.844Z,4.70
2023-03-12T10:17:58.883Z,3.20
2023-03-12T10:21:04.034Z,2.60
2023-03-12T10:23:52.392Z,5.10
2023-03-12T10:26:37.261Z,3.40
2023-03-12T10:29:25.651Z,2.50
2023-03-12T10:32:17.978Z,3.90
2023-03-12T10:35:16.984Z,2.50
2023-03-12T10:38:00.709Z,3.20
2023-03-12T10:40:35.726Z,2.90
2023-03-12T10:43:10.429Z,5.90
2023-03-12T10:46:16.882Z,4.20
2023-03-12T10:49:11.480Z,3.60
2023-03-12T10:52:19.143Z,1.80
2023-03-12T10:55:06.002Z,7.00
2023-03-12T10:57:46.642Z,9.90
2023-03-12T11:00:32.775Z,11.70
2023-03-12T11:03:24.811Z,18.00
2023-03-12T11:06:07.105Z,5.80
2023-03-12T11:09:16.345Z,4.90
2023-03-12T11:11:52.085Z,4.70
2023-03-12T11:14:30.674Z,4.30
2023-03-12T11:17:28.160Z,4.20
2023-03-12T11:20:23.804Z,6.10
2023-03-12T11:23:13.899Z,5.00
2023-03-12T11:26:00.562Z,3.70
2023-03-12T11:28:52.762Z,2.50
2023-03-12T11:31:39.756Z,2.00
2023-03-12T11:34:31.892Z,4.10
2023-03-12T11:37:32.379Z,2.40
2023-03-12T11:40:42.244Z,5.20
2023-03-12T11:43:49.777Z,3.60
2023-03-12T11:47:11.828Z,4.70
2023-03-12T11:50:24.953Z,5.60
2023-03-12T11:56:26.458Z,2.90
2023-03-12T11:59:16.049Z,4.40
2023-03-12T12:02:18.584Z,1.90
2023-03-12T12:05:30.921Z,4.10
2023-03-12T12:08:21.138Z,2.60
2023-03-12T12:11:42.566Z,2.10
2023-03-12T12:14:59.118Z,3.20
2023-03-12T12:17:52.637Z,3.00
2023-03-12T12:20:56.077Z,4.60
2023-03-12T12:24:01.394Z,4.60
2023-03-12T12:27:10.946Z,4.50
2023-03-12T12:30:11.870Z,2.60
2023-03-12T12:33:09.285Z,4.60
2023-03-12T12:35:48.234Z,2.90
2023-03-12T12:38:48.933Z,3.00
2023-03-12T12:41:38.232Z,2.60
2023-03-12T12:44:30.166Z,2.70
2023-03-12T12:47:13.700Z,3.20
2023-03-12T12:49:57.993Z,2.60
2023-03-12T12:52:34.686Z,3.60
2023-03-12T12:55:14.294Z,4.60
2023-03-12T12:58:02.118Z,2.30
2023-03-12T13:00:54.778Z,3.20
2023-03-12T13:03:32.522Z,3.40
2023-03-12T13:06:12.940Z,3.50
2023-03-12T13:08:50.943Z,4.20
2023-03-12T13:11:45.167Z,3.60
2023-03-12T13:14:37.272Z,3.60
2023-03-12T13:17:52.846Z,5.00
2023-03-12T13:20:56.300Z,2.00
2023-03-12T13:24:03.592Z,2.30
2023-03-12T13:27:07.175Z,3.20
2023-03-12T13:29:43.735Z,3.40
2023-03-12T13:33:03.993Z,3.90
2023-03-12T13:35:42.220Z,2.10
2023-03-12T13:38:40.422Z,2.30
2023-03-12T13:41:34.327Z,5.10
2023-03-12T13:44:28.120Z,3.20
2023-03-12T13:47:08.233Z,6.00
2023-03-12T13:50:15.588Z,2.80
2023-03-12T13:53:11.406Z,8.50
2023-03-12T13:55:45.620Z,4.70
2023-03-12T13:58:24.228Z,2.70
2023-03-12T14:01:15.867Z,2.80
2023-03-12T14:03:52.394Z,3.50
2023-03-12T14:06:32.063Z,2.50
2023-03-12T14:09:08.525Z,4.70
2023-03-12T14:12:10.849Z,6.60
2023-03-12T14:15:16.536Z,8.10
2023-03-12T14:17:56.855Z,23.00
2023-03-12T14:20:39.623Z,8.90
2023-03-12T14:23:18.354Z,7.50
2023-03-12T14:25:50.090Z,11.00
2023-03-12T14:28:33.149Z,9.80
2023-03-12T14:31:27.361Z,6.80
2023-03-12T14:34:19.213Z,3.20
2023-03-12T14:37:16.886Z,8.90
2023-03-12T14:39:56.316Z,4.20
2023-03-12T14:42:36.948Z,5.40
2023-03-12T14:45:19.413Z,5.50
2023-03-12T14:48:02.640Z,3.60
2023-03-12T14:50:41.995Z,4.80
2023-03-12T14:53:29.131Z,4.00
2023-03-12T14:56:33.520Z,4.20
2023-03-12T14:59:28.582Z,4.10
2023-03-12T15:02:15.474Z,5.20
2023-03-12T15:04:54.828Z,4.70
2023-03-12T15:07:42.743Z,4.50
2023-03-12T15:10:34.711Z,9.70
2023-03-12T15:13:15.385Z,4.20
2023-03-12T15:15:56.013Z,6.60
2023-03-12T15:18:36.047Z,4.80
2023-03-12T15:21:13.595Z,4.70
2023-03-12T15:23:53.068Z,4.50
2023-03-12T15:26:32.362Z,5.00
2023-03-12T15:29:30.070Z,4.70
2023-03-12T15:32:01.624Z,6.30
2023-03-12T15:34:37.789Z,14.50
2023-03-12T15:37:43.369Z,4.40
2023-03-12T15:40:33.599Z,3.60
2023-03-12T15:43:20.645Z,5.40
2023-03-12T15:46:03.820Z,6.40
2023-03-12T15:48:44.400Z,4.30
2023-03-12T15:51:41.656Z,5.90
2023-03-12T15:54:31.174Z,5.30
2023-03-12T15:57:25.325Z,3.00
2023-03-12T16:00:25.772Z,19.70
2023-03-12T16:03:08.585Z,7.90
2023-03-12T16:05:40.825Z,3.90
2023-03-12T16:08:36.690Z,4.40
2023-03-12T16:11:28.581Z,4.30
2023-03-12T16:14:35.413Z,6.40
2023-03-12T16:17:18.385Z,7.30
2023-03-12T16:19:55.864Z,6.50
2023-03-12T16:22:34.300Z,5.30
2023-03-12T16:25:13.809Z,8.50
2023-03-12T16:27:59.449Z,4.80
2023-03-12T16:30:38.935Z,8.00
2023-03-12T16:33:20.540Z,6.00
2023-03-12T16:35:59.134Z,5.90
2023-03-12T16:38:37.417Z,7.10
2023-03-12T16:41:20.743Z,4.70
2023-03-12T16:43:59.217Z,5.00
2023-03-12T16:46:37.126Z,6.90
2023-03-12T16:49:14.933Z,4.80
2023-03-12T16:51:52.731Z,4.80
2023-03-12T16:54:30.608Z,7.00
2023-03-12T16:57:03.699Z,6.30
2023-03-12T16:59:43.643Z,6.50
2023-03-12T17:02:22.020Z,8.90
2023-03-12T17:05:00.059Z,6.20
2023-03-12T17:07:38.967Z,7.70
2023-03-12T17:10:19.547Z,7.60
2023-03-12T17:12:58.704Z,8.50
2023-03-12T17:15:37.233Z,6.50
2023-03-12T17:18:17.282Z,5.10
2023-03-12T17:20:56.561Z,10.00
2023-03-12T17:23:35.761Z,5.60
2023-03-12T17:26:09.392Z,7.30
2023-03-12T17:28:43.338Z,6.20
2023-03-12T17:31:22.365Z,6.70
2023-03-12T17:34:04.024Z,8.70
2023-03-12T17:36:42.522Z,13.50
2023-03-12T17:39:20.578Z,9.00
2023-03-12T17:41:58.577Z,10.50
2023-03-12T17:44:39.943Z,9.50
2023-03-12T17:47:18.373Z,10.70
2023-03-12T17:49:55.955Z,9.70
2023-03-12T17:52:35.246Z,21.90
2023-03-12T17:55:11.618Z,13.20
2023-03-12T17:57:52.153Z,33.20
2023-03-12T18:00:30.344Z,31.30
2023-03-12T18:03:07.161Z,17.40
2023-03-12T18:05:51.121Z,29.40
2023-03-12T18:08:30.013Z,12.00
2023-03-12T18:11:07.266Z,28.00
2023-03-12T18:13:45.230Z,14.40
2023-03-12T18:16:23.429Z,23.20
2023-03-12T18:19:01.915Z,14.30
2023-03-12T18:21:40.080Z,19.00
2023-03-12T18:24:18.617Z,17.80
2023-03-12T18:26:51.272Z,30.90
2023-03-12T18:29:24.749Z,16.90
2023-03-12T18:32:05.193Z,20.90
2023-03-12T18:34:45.016Z,14.50
2023-03-12T18:37:23.357Z,15.10
2023-03-12T18:40:01.439Z,20.20
2023-03-12T18:42:44.769Z,22.30
2023-03-12T18:45:23.747Z,25.00
2023-03-12T18:48:02.088Z,14.40
2023-03-12T18:50:40.397Z,23.30
2023-03-12T18:53:11.515Z,8.70
2023-03-12T18:56:01.448Z,14.30
2023-03-12T18:58:40.033Z,15.00
2023-03-12T19:01:12.549Z,10.10
2023-03-12T19:03:51.837Z,9.10
2023-03-12T19:06:40.754Z,8.50
2023-03-12T19:09:26.474Z,18.30
2023-03-12T19:12:06.056Z,22.50
2023-03-12T19:14:44.865Z,16.50
2023-03-12T19:17:16.321Z,17.80
2023-03-12T19:19:54.660Z,11.10
2023-03-12T19:22:32.605Z,12.10
2023-03-12T19:25:10.770Z,11.70
2023-03-12T19:27:48.901Z,15.00
2023-03-12T19:30:30.970Z,10.90
2023-03-12T19:33:10.400Z,15.00
2023-03-12T19:35:49.213Z,12.90
2023-03-12T19:38:27.787Z,13.10
2023-03-12T19:41:08.976Z,17.00
2023-03-12T19:43:46.691Z,13.10
2023-03-12T19:46:23.805Z,18.80
2023-03-12T19:49:06.915Z,14.20
2023-03-12T19:51:44.406Z,16.10
2023-03-12T19:54:22.187Z,14.30
2023-03-12T19:56:59.081Z,11.10
2023-03-12T19:59:30.120Z,9.80
2023-03-12T20:02:08.654Z,9.70
2023-03-12T20:04:45.518Z,12.90
2023-03-12T20:07:23.113Z,12.10
2023-03-12T20:10:00.440Z,9.40
2023-03-12T20:12:37.406Z,12.90
2023-03-12T20:15:11.979Z,15.90
2023-03-12T20:17:50.087Z,11.30
2023-03-12T20:20:27.647Z,10.70
2023-03-12T20:23:05.200Z,11.20
2023-03-12T20:25:51.892Z,14.60
2023-03-12T20:28:29.958Z,10.10
2023-03-12T20:31:16.115Z,10.60
2023-03-12T20:33:54.018Z,12.90
2023-03-12T20:36:31.922Z,10.00
2023-03-12T20:39:09.686Z,14.40
2023-03-12T20:41:46.468Z,8.60
2023-03-12T20:44:23.318Z,15.00
2023-03-12T20:47:00.712Z,9.00
2023-03-12T20:49:31.754Z,11.20
2023-03-12T20:52:09.269Z,10.00
2023-03-12T20:54:47.480Z,5.30
2023-03-12T20:57:25.050Z,9.80
2023-03-12T21:00:02.009Z,11.00
2023-03-12T21:02:39.466Z,10.00
2023-03-12T21:05:12.438Z,7.60
2023-03-12T21:07:49.698Z,10.00
2023-03-12T21:10:26.906Z,10.80
2023-03-12T21:13:04.217Z,11.50
2023-03-12T21:15:34.490Z,8.60
2023-03-12T21:18:11.176Z,12.50
2023-03-12T21:20:47.946Z,10.50
2023-03-12T21:23:25.407Z,11.60
2023-03-12T21:26:09.053Z,9.10
2023-03-12T21:28:47.031Z,9.60
2023-03-12T21:31:20.148Z,8.50
2023-03-12T21:34:07.385Z,14.90
2023-03-12T21:36:46.675Z,14.10
2023-03-12T21:39:24.338Z,6.80
2023-03-12T21:42:01.031Z,9.90
2023-03-12T21:44:40.539Z,11.30
2023-03-12T21:47:12.067Z,7.80
2023-03-12T21:49:49.374Z,8.60
2023-03-12T21:52:26.697Z,9.90
2023-03-12T21:54:56.851Z,11.70
2023-03-12T21:57:31.683Z,11.60
2023-03-12T22:00:13.512Z,10.80
2023-03-12T22:02:51.180Z,9.90
2023-03-12T22:05:27.448Z,9.50
2023-03-12T22:08:04.530Z,15.80
2023-03-12T22:10:40.516Z,15.30
2023-03-12T22:13:13.573Z,7.40
2023-03-12T22:16:00.733Z,11.60
2023-03-12T22:18:44.437Z,10.90
2023-03-12T22:21:21.934Z,17.80
2023-03-12T22:23:59.189Z,16.80
2023-03-12T22:26:35.707Z,14.40
2023-03-12T22:29:12.689Z,13.90
2023-03-12T22:31:49.237Z,12.60
2023-03-12T22:34:26.551Z,17.70
2023-03-12T22:36:57.097Z,16.70
2023-03-12T22:39:33.146Z,16.30
2023-03-12T22:42:10.983Z,15.80
2023-03-12T22:44:48.059Z,10.20
2023-03-12T22:47:18.304Z,11.50
2023-03-12T22:49:58.172Z,16.40
2023-03-12T22:52:35.762Z,6.90
2023-03-12T22:55:12.955Z,8.30
2023-03-12T22:57:49.516Z,17.40
2023-03-12T23:00:27.160Z,17.40
2023-03-12T23:02:57.421Z,11.30
2023-03-12T23:05:35.020Z,11.90
2023-03-12T23:08:11.985Z,22.20
2023-03-12T23:10:53.789Z,10.80
2023-03-12T23:16:14.565Z,15.20
2023-03-12T23:18:51.520Z,12.50
2023-03-12T23:21:29.334Z,17.40
2023-03-12T23:24:06.666Z,23.90
2023-03-12T23:26:44.311Z,19.00
2023-03-12T23:29:14.593Z,12.90
2023-03-12T23:31:52.367Z,24.70
2023-03-12T23:34:30.585Z,7.60
2023-03-12T23:37:08.752Z,15.90
2023-03-12T23:39:54.523Z,8.50
2023-03-12T23:42:32.534Z,13.00
2023-03-12T23:45:11.177Z,14.80
2023-03-12T23:47:47.520Z,7.50
2023-03-12T23:50:24.789Z,18.00
2023-03-12T23:53:01.354Z,14.10
2023-03-12T23:55:31.687Z,13.50
2023-03-12T23:58:09.748Z,8.90
